createdAt,value
2022-11-10T00:00:23.126Z,10.70
2022-11-10T00:04:32.210Z,10.70
2022-11-10T00:08:40.794Z,10.70
2022-11-10T00:12:49.732Z,10.70
2022-11-10T00:17:04.623Z,10.60
2022-11-10T00:21:14.690Z,10.60
2022-11-10T00:25:24.509Z,10.60
2022-11-10T00:29:33.151Z,10.60
2022-11-10T00:33:43.747Z,10.50
2022-11-10T00:37:52.497Z,10.40
2022-11-10T00:42:01.030Z,10.40
2022-11-10T00:46:09.713Z,10.50
2022-11-10T00:50:18.549Z,10.40
2022-11-10T00:54:27.093Z,10.40
2022-11-10T00:58:35.702Z,10.40
2022-11-10T01:02:44.336Z,10.40
2022-11-10T01:06:53.148Z,10.40
2022-11-10T01:11:10.319Z,10.40
2022-11-10T01:15:42.065Z,10.40
2022-11-10T01:19:50.627Z,10.30
2022-11-10T01:23:59.737Z,10.30
2022-11-10T01:28:29.048Z,10.30
2022-11-10T01:32:37.614Z,10.30
2022-11-10T01:36:46.169Z,10.30
2022-11-10T01:40:54.900Z,10.30
2022-11-10T01:45:27.522Z,10.30
2022-11-10T01:49:36.663Z,10.30
2022-11-10T01:53:48.081Z,10.30
2022-11-10T01:57:57.415Z,10.20
2022-11-10T02:02:15.110Z,10.20
2022-11-10T02:06:26.718Z,10.20
2022-11-10T02:10:35.371Z,10.10
2022-11-10T02:14:44.528Z,10.10
2022-11-10T02:18:53.725Z,10.10
2022-11-10T02:23:13.968Z,10.10
2022-11-10T02:27:22.582Z,10.10
2022-11-10T02:31:31.212Z,10.10
2022-11-10T02:35:39.771Z,10.00
2022-11-10T02:39:48.317Z,10.00
2022-11-10T02:43:58.634Z,10.00
2022-11-10T02:48:07.454Z,10.10
2022-11-10T02:52:16.096Z,10.00
2022-11-10T02:56:24.623Z,10.00
2022-11-10T03:00:33.399Z,9.90
2022-11-10T03:04:42.044Z,10.00
2022-11-10T03:08:50.713Z,10.00
2022-11-10T03:13:01.905Z,10.00
2022-11-10T03:17:10.634Z,10.00
2022-11-10T03:21:19.196Z,10.00
2022-11-10T03:25:27.787Z,10.00
2022-11-10T03:29:36.610Z,10.00
2022-11-10T03:33:45.181Z,10.00
2022-11-10T03:37:53.770Z,10.00
2022-11-10T03:42:02.340Z,10.00
2022-11-10T03:46:10.931Z,10.00
2022-11-10T03:50:38.803Z,9.90
2022-11-10T03:54:47.440Z,9.90
2022-11-10T03:58:55.939Z,9.90
2022-11-10T04:03:04.596Z,10.00
2022-11-10T04:07:32.785Z,10.00
2022-11-10T04:11:59.047Z,10.00
2022-11-10T04:16:07.858Z,10.00
2022-11-10T04:20:16.485Z,10.00
2022-11-10T04:24:25.115Z,9.90
2022-11-10T04:28:33.613Z,9.90
2022-11-10T04:32:42.175Z,9.90
2022-11-10T04:36:50.742Z,9.90
2022-11-10T04:40:59.527Z,9.90
2022-11-10T04:45:08.910Z,9.90
2022-11-10T04:49:18.527Z,9.90
2022-11-10T04:53:27.041Z,9.90
2022-11-10T04:57:35.671Z,9.90
2022-11-10T05:01:44.248Z,9.90
2022-11-10T05:05:53.338Z,9.80
2022-11-10T05:10:01.961Z,9.80
2022-11-10T05:14:10.914Z,9.80
2022-11-10T05:18:20.038Z,9.80
2022-11-10T05:22:28.665Z,9.80
2022-11-10T05:26:37.191Z,9.70
2022-11-10T05:30:46.003Z,9.70
2022-11-10T05:34:54.654Z,9.80
2022-11-10T05:39:03.134Z,9.70
2022-11-10T05:43:12.529Z,9.60
2022-11-10T05:47:21.158Z,9.70
2022-11-10T05:51:32.417Z,9.60
2022-11-10T05:55:41.094Z,9.60
2022-11-10T05:59:49.663Z,9.60
2022-11-10T06:04:18.503Z,9.60
2022-11-10T06:08:27.033Z,9.60
2022-11-10T06:12:35.659Z,9.60
2022-11-10T06:16:44.292Z,9.60
2022-11-10T06:20:52.921Z,9.50
2022-11-10T06:25:01.556Z,9.50
2022-11-10T06:29:10.112Z,9.50
2022-11-10T06:33:19.451Z,9.50
2022-11-10T06:37:47.811Z,9.50
2022-11-10T06:41:56.437Z,9.60
2022-11-10T06:46:05.170Z,9.60
2022-11-10T06:50:14.309Z,9.50
2022-11-10T06:54:23.471Z,9.60
2022-11-10T06:58:32.385Z,9.60
2022-11-10T07:02:40.911Z,9.60
2022-11-10T07:06:49.752Z,9.60
2022-11-10T07:10:58.481Z,9.60
2022-11-10T07:15:07.966Z,9.60
2022-11-10T07:19:16.539Z,9.60
2022-11-10T07:23:44.539Z,9.60
2022-11-10T07:28:01.539Z,9.70
2022-11-10T07:32:10.140Z,9.70
2022-11-10T07:36:18.717Z,9.70
2022-11-10T07:40:27.422Z,9.70
2022-11-10T07:44:36.592Z,9.70
2022-11-10T07:48:45.119Z,9.80
2022-11-10T07:52:53.950Z,9.80
2022-11-10T07:57:02.475Z,9.80
2022-11-10T08:01:11.730Z,9.90
2022-11-10T08:05:20.657Z,9.90
2022-11-10T08:09:29.284Z,10.00
2022-11-10T08:13:57.367Z,10.00
2022-11-10T08:18:09.379Z,10.10
2022-11-10T08:22:18.009Z,10.20
2022-11-10T08:26:26.714Z,10.30
2022-11-10T08:30:37.294Z,10.30
2022-11-10T08:34:45.861Z,10.40
2022-11-10T08:38:55.186Z,10.40
2022-11-10T08:43:06.306Z,10.50
2022-11-10T08:47:15.002Z,10.60
2022-11-10T08:51:24.853Z,10.70
2022-11-10T08:55:33.996Z,10.70
2022-11-10T08:59:42.729Z,10.80
2022-11-10T09:03:51.559Z,10.80
2022-11-10T09:08:00.092Z,10.90
2022-11-10T09:12:28.247Z,10.90
2022-11-10T09:16:38.901Z,11.00
2022-11-10T09:20:47.192Z,11.00
2022-11-10T09:24:56.003Z,11.10
2022-11-10T09:29:04.510Z,11.10
2022-11-10T09:33:13.092Z,11.30
2022-11-10T09:37:22.303Z,11.30
2022-11-10T09:41:34.306Z,11.40
2022-11-10T09:45:46.518Z,11.40
2022-11-10T09:50:01.317Z,11.50
2022-11-10T09:54:22.084Z,11.50
2022-11-10T09:58:42.720Z,11.60
2022-11-10T10:02:55.439Z,11.60
2022-11-10T10:07:25.711Z,11.70
2022-11-10T10:11:51.918Z,11.80
2022-11-10T10:16:35.530Z,11.90
2022-11-10T10:21:24.854Z,12.00
2022-11-10T10:25:53.248Z,12.10
2022-11-10T10:34:59.574Z,12.30
2022-11-10T10:39:21.649Z,12.40
2022-11-10T10:44:04.170Z,12.50
2022-11-10T10:48:09.985Z,12.60
2022-11-10T10:52:23.019Z,12.60
2022-11-10T10:56:33.793Z,12.70
2022-11-10T11:00:47.761Z,12.80
2022-11-10T11:05:08.884Z,12.90
2022-11-10T11:09:29.843Z,12.90
2022-11-10T11:13:38.679Z,12.90
2022-11-10T11:18:04.908Z,13.00
2022-11-10T11:22:44.145Z,13.00
2022-11-10T11:26:58.567Z,13.10
2022-11-10T11:31:13.033Z,13.10
2022-11-10T11:35:24.684Z,13.20
2022-11-10T11:39:38.994Z,13.20
2022-11-10T11:44:08.820Z,13.30
2022-11-10T11:48:41.132Z,13.30
2022-11-10T11:53:09.392Z,13.40
2022-11-10T11:57:23.653Z,13.50
2022-11-10T12:01:56.346Z,13.60
2022-11-10T12:06:09.078Z,13.70
2022-11-10T12:10:52.414Z,13.90
2022-11-10T12:15:04.607Z,13.90
2022-11-10T12:19:40.496Z,14.00
2022-11-10T12:23:58.031Z,14.00
2022-11-10T12:28:13.011Z,14.00
2022-11-10T12:32:27.779Z,14.10
2022-11-10T12:36:55.762Z,14.20
2022-11-10T12:41:07.576Z,14.20
2022-11-10T12:45:22.269Z,14.30
2022-11-10T12:49:39.777Z,14.30
2022-11-10T12:54:16.314Z,14.30
2022-11-10T12:58:21.747Z,14.40
2022-11-10T13:02:42.625Z,14.30
2022-11-10T13:06:54.460Z,14.30
2022-11-10T13:11:06.438Z,14.40
2022-11-10T13:15:37.798Z,14.40
2022-11-10T13:19:51.158Z,14.50
2022-11-10T13:24:38.831Z,14.60
2022-11-10T13:28:53.451Z,14.60
2022-11-10T13:33:27.884Z,14.60
2022-11-10T13:37:39.524Z,14.60
2022-11-10T13:42:03.370Z,14.60
2022-11-10T13:46:12.001Z,14.70
2022-11-10T13:50:32.813Z,14.70
2022-11-10T13:54:47.279Z,14.80
2022-11-10T13:58:56.638Z,14.80
2022-11-10T14:03:08.195Z,14.80
2022-11-10T14:07:20.623Z,14.90
2022-11-10T14:11:32.314Z,14.90
2022-11-10T14:15:43.976Z,14.80
2022-11-10T14:19:52.897Z,14.80
2022-11-10T14:24:16.379Z,14.70
2022-11-10T14:28:33.863Z,14.60
2022-11-10T14:32:42.518Z,14.60
2022-11-10T14:36:56.723Z,14.60
2022-11-10T14:41:07.337Z,14.50
2022-11-10T14:45:22.229Z,14.40
2022-11-10T14:49:30.859Z,14.30
2022-11-10T14:53:58.840Z,14.20
2022-11-10T14:58:28.255Z,14.20
2022-11-10T15:02:38.295Z,14.10
2022-11-10T15:06:49.491Z,14.10
2022-11-10T15:11:36.961Z,14.00
2022-11-10T15:16:23.052Z,14.00
2022-11-10T15:20:38.131Z,13.90
2022-11-10T15:24:48.845Z,13.90
2022-11-10T15:28:57.497Z,13.80
2022-11-10T15:33:15.147Z,13.70
2022-11-10T15:37:31.034Z,13.70
2022-11-10T15:41:45.065Z,13.60
2022-11-10T15:45:59.936Z,13.50
2022-11-10T15:50:11.779Z,13.40
2022-11-10T15:54:23.151Z,13.30
2022-11-10T15:58:32.252Z,13.20
2022-11-10T16:02:42.616Z,13.20
2022-11-10T16:06:51.280Z,13.10
2022-11-10T16:11:00.332Z,13.10
2022-11-10T16:15:29.297Z,13.00
2022-11-10T16:19:37.879Z,12.90
2022-11-10T16:23:46.751Z,12.90
2022-11-10T16:27:55.271Z,12.80
2022-11-10T16:32:04.417Z,12.80
2022-11-10T16:36:18.675Z,12.70
2022-11-10T16:40:27.261Z,12.60
2022-11-10T16:44:55.707Z,12.60
2022-11-10T16:49:05.809Z,12.50
2022-11-10T16:53:20.872Z,12.40
2022-11-10T16:57:29.503Z,12.40
2022-11-10T17:01:40.969Z,12.40
2022-11-10T17:05:50.443Z,12.40
2022-11-10T17:10:00.616Z,12.30
2022-11-10T17:14:14.048Z,12.30
2022-11-10T17:18:25.090Z,12.20
2022-11-10T17:22:36.414Z,12.10
2022-11-10T17:26:45.503Z,12.10
2022-11-10T17:31:16.099Z,12.10
2022-11-10T17:35:45.627Z,12.10
2022-11-10T17:39:55.298Z,12.10
2022-11-10T17:44:04.139Z,12.10
2022-11-10T17:48:13.069Z,12.00
2022-11-10T17:52:21.678Z,12.00
2022-11-10T17:56:30.516Z,12.00
2022-11-10T18:00:39.144Z,12.00
2022-11-10T18:04:47.776Z,12.00
2022-11-10T18:08:56.398Z,12.00
2022-11-10T18:13:04.994Z,12.00
2022-11-10T18:17:13.594Z,12.00
2022-11-10T18:21:22.182Z,11.90
2022-11-10T18:25:30.912Z,11.90
2022-11-10T18:29:39.541Z,11.90
2022-11-10T18:33:48.422Z,11.80
2022-11-10T18:37:57.005Z,11.80
2022-11-10T18:42:06.451Z,11.80
2022-11-10T18:46:15.085Z,11.80
2022-11-10T18:50:23.605Z,11.80
2022-11-10T18:54:32.234Z,11.70
2022-11-10T18:58:41.172Z,11.70
2022-11-10T19:02:50.106Z,11.70
2022-11-10T19:06:58.755Z,11.70
2022-11-10T19:11:09.805Z,11.70
2022-11-10T19:15:18.417Z,11.50
2022-11-10T19:19:27.310Z,11.40
2022-11-10T19:23:36.354Z,11.40
2022-11-10T19:27:44.950Z,11.20
2022-11-10T19:31:53.580Z,11.20
2022-11-10T19:36:10.840Z,11.10
2022-11-10T19:40:19.438Z,11.00
2022-11-10T19:44:28.065Z,11.00
2022-11-10T19:48:37.004Z,11.00
2022-11-10T19:52:45.733Z,11.00
2022-11-10T19:56:54.260Z,11.00
2022-11-10T20:01:02.995Z,10.90
2022-11-10T20:05:15.994Z,10.90
2022-11-10T20:09:24.564Z,10.90
2022-11-10T20:13:33.641Z,10.80
2022-11-10T20:17:42.934Z,10.80
2022-11-10T20:21:51.662Z,10.80
2022-11-10T20:26:08.791Z,10.80
2022-11-10T20:30:22.503Z,10.80
2022-11-10T20:34:27.893Z,10.70
2022-11-10T20:38:37.459Z,10.70
2022-11-10T20:42:46.054Z,10.70
2022-11-10T20:46:55.586Z,10.70
2022-11-10T20:51:10.508Z,10.60
2022-11-10T20:55:36.967Z,10.50
2022-11-10T20:59:29.394Z,10.50
2022-11-10T21:03:38.022Z,10.40
2022-11-10T21:07:46.586Z,10.30
2022-11-10T21:12:13.014Z,10.30
2022-11-10T21:16:21.725Z,10.40
2022-11-10T21:20:31.377Z,10.30
2022-11-10T21:24:40.006Z,10.20
2022-11-10T21:28:48.644Z,10.20
2022-11-10T21:32:57.170Z,10.10
2022-11-10T21:37:05.787Z,10.10
2022-11-10T21:41:14.952Z,10.00
2022-11-10T21:45:23.661Z,10.00
2022-11-10T21:49:51.540Z,9.90
2022-11-10T21:54:03.139Z,10.00
2022-11-10T21:58:11.698Z,9.90
2022-11-10T22:02:20.293Z,9.90
2022-11-10T22:06:30.560Z,9.90
2022-11-10T22:10:56.912Z,9.90
2022-11-10T22:15:24.425Z,9.90
2022-11-10T22:19:34.311Z,9.80
2022-11-10T22:24:00.715Z,9.80
2022-11-10T22:28:09.314Z,9.70
2022-11-10T22:32:18.276Z,9.70
2022-11-10T22:36:26.835Z,9.70
2022-11-10T22:40:55.778Z,9.70
2022-11-10T22:45:04.712Z,9.60
2022-11-10T22:49:15.696Z,9.60
2022-11-10T22:53:25.462Z,9.60
2022-11-10T22:57:34.183Z,9.60
2022-11-10T23:01:44.929Z,9.50
2022-11-10T23:05:56.524Z,9.50
2022-11-10T23:10:03.795Z,9.50
2022-11-10T23:14:12.413Z,9.50
2022-11-10T23:18:22.068Z,9.50
2022-11-10T23:22:30.867Z,9.50
2022-11-10T23:26:39.423Z,9.40
2022-11-10T23:30:49.712Z,9.40
2022-11-10T23:34:58.250Z,9.40
2022-11-10T23:39:06.925Z,9.40
2022-11-10T23:43:15.547Z,9.40
2022-11-10T23:47:24.090Z,9.30
2022-11-10T23:51:32.804Z,9.30
2022-11-10T23:55:41.717Z,9.30
2022-11-10T23:59:50.282Z,9.30
